sensor_id;sensor_type;location;lat;lon;timestamp;pressure;altitude;pressure_sealevel;temperature;humidity
15260;BME280;34462;51.368;12.364;2024-03-29T00:00:58;18718.56;;;-141.84;61.41
15260;BME280;34462;51.368;12.364;2024-03-29T00:03:24;18769.34;;;-141.84;61.62
15260;BME280;34462;51.368;12.364;2024-03-29T00:05:50;18744.97;;;-141.84;62.51
15260;BME280;34462;51.368;12.364;2024-03-29T00:08:17;18747.00;;;-141.84;63.16
15260;BME280;34462;51.368;12.364;2024-03-29T00:10:46;18775.44;;;-141.84;61.76
15260;BME280;34462;51.368;12.364;2024-03-29T00:13:14;18767.31;;;-141.84;60.58
15260;BME280;34462;51.368;12.364;2024-03-29T00:15:40;18765.28;;;-141.84;60.77
15260;BME280;34462;51.368;12.364;2024-03-29T00:18:07;18728.72;;;-141.84;60.77
15260;BME280;34462;51.368;12.364;2024-03-29T00:20:33;18738.88;;;-141.84;60.89
15260;BME280;34462;51.368;12.364;2024-03-29T00:23:00;18744.97;;;-141.84;62.08
15260;BME280;34462;51.368;12.364;2024-03-29T00:25:26;18718.56;;;-141.84;62.11
15260;BME280;34462;51.368;12.364;2024-03-29T00:27:52;18759.19;;;-141.84;61.13
15260;BME280;34462;51.368;12.364;2024-03-29T00:30:20;18749.03;;;-141.84;60.32
15260;BME280;34462;51.368;12.364;2024-03-29T00:32:46;18761.22;;;-141.84;60.49
15260;BME280;34462;51.368;12.364;2024-03-29T00:35:13;18781.53;;;-141.84;61.03
15260;BME280;34462;51.368;12.364;2024-03-29T00:37:39;18734.81;;;-141.84;61.51
15260;BME280;34462;51.368;12.364;2024-03-29T00:40:07;18738.88;;;-141.84;60.19
15260;BME280;34462;51.368;12.364;2024-03-29T00:42:33;18744.97;;;-141.84;61.46
15260;BME280;34462;51.368;12.364;2024-03-29T00:44:59;18740.91;;;-141.84;61.39
15260;BME280;34462;51.368;12.364;2024-03-29T00:47:27;18767.31;;;-141.84;61.75
15260;BME280;34462;51.368;12.364;2024-03-29T00:49:54;18757.16;;;-141.84;61.05
15260;BME280;34462;51.368;12.364;2024-03-29T00:52:20;18747.00;;;-141.84;59.76
15260;BME280;34462;51.368;12.364;2024-03-29T00:54:46;18753.09;;;-141.84;59.25
15260;BME280;34462;51.368;12.364;2024-03-29T00:57:13;18751.06;;;-141.84;60.04
15260;BME280;34462;51.368;12.364;2024-03-29T00:59:39;18751.06;;;-141.84;59.49
15260;BME280;34462;51.368;12.364;2024-03-29T01:02:06;18740.91;;;-141.84;60.21
15260;BME280;34462;51.368;12.364;2024-03-29T01:04:33;18761.22;;;-141.84;58.91
15260;BME280;34462;51.368;12.364;2024-03-29T01:07:00;18747.00;;;-141.84;58.80
15260;BME280;34462;51.368;12.364;2024-03-29T01:09:26;18761.22;;;-141.84;58.66
15260;BME280;34462;51.368;12.364;2024-03-29T01:11:52;18749.03;;;-141.84;58.84
15260;BME280;34462;51.368;12.364;2024-03-29T01:14:20;18724.66;;;-141.84;59.47
15260;BME280;34462;51.368;12.364;2024-03-29T01:16:47;18759.19;;;-141.84;59.61
15260;BME280;34462;51.368;12.364;2024-03-29T01:19:13;18744.97;;;-141.84;60.06
15260;BME280;34462;51.368;12.364;2024-03-29T01:21:41;18740.91;;;-141.84;59.74
15260;BME280;34462;51.368;12.364;2024-03-29T01:24:07;18740.91;;;-141.84;60.09
15260;BME280;34462;51.368;12.364;2024-03-29T01:26:34;18757.16;;;-141.84;58.84
15260;BME280;34462;51.368;12.364;2024-03-29T01:29:00;18755.13;;;-141.84;59.86
15260;BME280;34462;51.368;12.364;2024-03-29T01:31:26;18740.91;;;-141.84;60.65
15260;BME280;34462;51.368;12.364;2024-03-29T01:33:53;18722.63;;;-141.84;60.35
15260;BME280;34462;51.368;12.364;2024-03-29T01:36:19;18716.53;;;-141.84;59.74
15260;BME280;34462;51.368;12.364;2024-03-29T01:38:47;18747.00;;;-141.84;60.11
15260;BME280;34462;51.368;12.364;2024-03-29T01:41:13;18702.28;;;-141.84;60.82
15260;BME280;34462;51.368;12.364;2024-03-29T01:43:39;18692.13;;;-141.84;62.23
15260;BME280;34462;51.368;12.364;2024-03-29T01:46:07;18724.66;;;-141.84;61.98
15260;BME280;34462;51.368;12.364;2024-03-29T01:48:34;18736.84;;;-141.84;62.51
15260;BME280;34462;51.368;12.364;2024-03-29T01:51:02;18702.28;;;-141.84;62.52
15260;BME280;34462;51.368;12.364;2024-03-29T01:53:30;18710.44;;;-141.84;62.61
15260;BME280;34462;51.368;12.364;2024-03-29T01:56:00;18718.56;;;-141.84;61.99
15260;BME280;34462;51.368;12.364;2024-03-29T01:58:29;18724.66;;;-141.84;62.00
15260;BME280;34462;51.368;12.364;2024-03-29T02:00:59;18738.88;;;-141.84;61.57
15260;BME280;34462;51.368;12.364;2024-03-29T02:03:27;18742.94;;;-141.84;62.17
15260;BME280;34462;51.368;12.364;2024-03-29T02:05:54;18714.50;;;-141.84;62.30
15260;BME280;34462;51.368;12.364;2024-03-29T02:08:23;18744.97;;;-141.84;62.42
15260;BME280;34462;51.368;12.364;2024-03-29T02:10:51;18761.22;;;-141.84;61.71
15260;BME280;34462;51.368;12.364;2024-03-29T02:13:20;18710.44;;;-141.84;62.60
15260;BME280;34462;51.368;12.364;2024-03-29T02:15:47;18696.19;;;-141.84;63.10
15260;BME280;34462;51.368;12.364;2024-03-29T02:18:14;18732.78;;;-141.84;62.91
15260;BME280;34462;51.368;12.364;2024-03-29T02:20:42;18688.06;;;-141.84;62.33
15260;BME280;34462;51.368;12.364;2024-03-29T02:23:12;18730.75;;;-141.84;61.70
15260;BME280;34462;51.368;12.364;2024-03-29T02:25:42;18708.41;;;-141.84;62.84
15260;BME280;34462;51.368;12.364;2024-03-29T02:28:09;18716.53;;;-141.84;60.90
15260;BME280;34462;51.368;12.364;2024-03-29T02:30:37;18779.50;;;-141.84;58.89
15260;BME280;34462;51.368;12.364;2024-03-29T02:33:04;18793.72;;;-141.84;59.38
15260;BME280;34462;51.368;12.364;2024-03-29T02:35:32;18757.16;;;-141.84;59.00
15260;BME280;34462;51.368;12.364;2024-03-29T02:37:59;18763.25;;;-141.84;59.77
15260;BME280;34462;51.368;12.364;2024-03-29T02:40:26;18740.91;;;-141.84;59.78
15260;BME280;34462;51.368;12.364;2024-03-29T02:42:55;18759.19;;;-141.84;59.09
15260;BME280;34462;51.368;12.364;2024-03-29T02:45:22;18755.13;;;-141.84;59.65
15260;BME280;34462;51.368;12.364;2024-03-29T02:47:49;18749.03;;;-141.84;58.95
15260;BME280;34462;51.368;12.364;2024-03-29T02:50:17;18787.63;;;-141.84;58.15
15260;BME280;34462;51.368;12.364;2024-03-29T02:52:43;18765.28;;;-141.84;58.06
15260;BME280;34462;51.368;12.364;2024-03-29T02:55:11;18787.63;;;-141.84;58.44
15260;BME280;34462;51.368;12.364;2024-03-29T02:57:37;18757.16;;;-141.84;57.83
15260;BME280;34462;51.368;12.364;2024-03-29T03:00:08;18763.25;;;-141.84;58.42
15260;BME280;34462;51.368;12.364;2024-03-29T03:02:38;18736.84;;;-141.84;58.30
15260;BME280;34462;51.368;12.364;2024-03-29T03:05:07;18749.03;;;-141.84;58.09
15260;BME280;34462;51.368;12.364;2024-03-29T03:07:34;18763.25;;;-141.84;58.14
15260;BME280;34462;51.368;12.364;2024-03-29T03:10:19;18773.41;;;-141.84;57.62
15260;BME280;34462;51.368;12.364;2024-03-29T03:13:05;18814.03;;;-141.84;57.50
15260;BME280;34462;51.368;12.364;2024-03-29T03:15:33;18761.22;;;-141.84;56.81
15260;BME280;34462;51.368;12.364;2024-03-29T03:18:01;18783.56;;;-141.84;56.24
15260;BME280;34462;51.368;12.364;2024-03-29T03:20:27;18797.78;;;-141.84;56.43
15260;BME280;34462;51.368;12.364;2024-03-29T03:22:56;18807.94;;;-141.84;56.55
15260;BME280;34462;51.368;12.364;2024-03-29T03:25:24;18769.34;;;-141.84;56.21
15260;BME280;34462;51.368;12.364;2024-03-29T03:27:51;18761.22;;;-141.84;56.87
15260;BME280;34462;51.368;12.364;2024-03-29T03:30:18;18795.75;;;-141.84;56.72
15260;BME280;34462;51.368;12.364;2024-03-29T03:32:46;18809.97;;;-141.84;56.52
15260;BME280;34462;51.368;12.364;2024-03-29T03:35:13;18779.50;;;-141.84;57.15
15260;BME280;34462;51.368;12.364;2024-03-29T03:37:40;18771.38;;;-141.84;56.98
15260;BME280;34462;51.368;12.364;2024-03-29T03:40:08;18793.72;;;-141.84;56.30
15260;BME280;34462;51.368;12.364;2024-03-29T03:42:35;18775.44;;;-141.84;55.99
15260;BME280;34462;51.368;12.364;2024-03-29T03:45:02;18799.81;;;-141.84;56.79
15260;BME280;34462;51.368;12.364;2024-03-29T03:47:30;18773.41;;;-141.84;56.90
15260;BME280;34462;51.368;12.364;2024-03-29T03:49:57;18787.63;;;-141.84;56.19
15260;BME280;34462;51.368;12.364;2024-03-29T03:52:25;18781.53;;;-141.84;56.44
15260;BME280;34462;51.368;12.364;2024-03-29T03:54:51;18791.69;;;-141.84;56.44
15260;BME280;34462;51.368;12.364;2024-03-29T03:57:18;18769.34;;;-141.84;56.91
15260;BME280;34462;51.368;12.364;2024-03-29T03:59:45;18820.16;;;-141.84;56.44
15260;BME280;34462;51.368;12.364;2024-03-29T04:02:12;18781.53;;;-141.84;56.98
15260;BME280;34462;51.368;12.364;2024-03-29T04:04:39;18761.22;;;-141.84;57.62
15260;BME280;34462;51.368;12.364;2024-03-29T04:07:07;18769.34;;;-141.84;57.48
15260;BME280;34462;51.368;12.364;2024-03-29T04:09:34;18803.88;;;-141.84;56.85
15260;BME280;34462;51.368;12.364;2024-03-29T04:12:01;18785.59;;;-141.84;56.45
15260;BME280;34462;51.368;12.364;2024-03-29T04:14:27;18783.56;;;-141.84;57.69
15260;BME280;34462;51.368;12.364;2024-03-29T04:16:54;18775.44;;;-141.84;56.83
15260;BME280;34462;51.368;12.364;2024-03-29T04:19:21;18771.38;;;-141.84;57.08
15260;BME280;34462;51.368;12.364;2024-03-29T04:21:48;18799.81;;;-141.84;56.63
15260;BME280;34462;51.368;12.364;2024-03-29T04:24:16;18757.16;;;-141.84;57.08
15260;BME280;34462;51.368;12.364;2024-03-29T04:26:43;18775.44;;;-141.84;56.72
15260;BME280;34462;51.368;12.364;2024-03-29T04:29:10;18771.38;;;-141.84;56.42
15260;BME280;34462;51.368;12.364;2024-03-29T04:31:38;18749.03;;;-141.84;57.20
15260;BME280;34462;51.368;12.364;2024-03-29T04:34:04;18787.63;;;-141.84;57.01
15260;BME280;34462;51.368;12.364;2024-03-29T04:36:31;18793.72;;;-141.84;55.85
15260;BME280;34462;51.368;12.364;2024-03-29T04:38:58;18771.38;;;-141.84;55.96
15260;BME280;34462;51.368;12.364;2024-03-29T04:41:26;18775.44;;;-141.84;55.94
15260;BME280;34462;51.368;12.364;2024-03-29T04:43:54;18805.91;;;-141.84;55.37
15260;BME280;34462;51.368;12.364;2024-03-29T04:46:21;18807.94;;;-141.84;54.98
15260;BME280;34462;51.368;12.364;2024-03-29T04:48:50;18832.34;;;-141.84;55.26
15260;BME280;34462;51.368;12.364;2024-03-29T04:51:17;18838.44;;;-141.84;54.93
15260;BME280;34462;51.368;12.364;2024-03-29T04:53:45;18830.31;;;-141.84;54.19
15260;BME280;34462;51.368;12.364;2024-03-29T04:56:12;18844.53;;;-141.84;54.27
15260;BME280;34462;51.368;12.364;2024-03-29T04:58:41;18830.31;;;-141.84;53.38
15260;BME280;34462;51.368;12.364;2024-03-29T05:01:08;18818.09;;;-141.84;54.09
15260;BME280;34462;51.368;12.364;2024-03-29T05:03:35;18838.44;;;-141.84;54.73
15260;BME280;34462;51.368;12.364;2024-03-29T05:06:03;18803.88;;;-141.84;54.80
15260;BME280;34462;51.368;12.364;2024-03-29T05:08:30;18832.34;;;-141.84;54.88
15260;BME280;34462;51.368;12.364;2024-03-29T05:10:57;18807.94;;;-141.84;55.28
15260;BME280;34462;51.368;12.364;2024-03-29T05:13:25;18866.88;;;-141.84;53.34
15260;BME280;34462;51.368;12.364;2024-03-29T05:15:53;18850.63;;;-141.84;53.35
15260;BME280;34462;51.368;12.364;2024-03-29T05:18:20;18838.44;;;-141.84;53.39
15260;BME280;34462;51.368;12.364;2024-03-29T05:20:48;18881.09;;;-141.84;53.51
15260;BME280;34462;51.368;12.364;2024-03-29T05:23:17;18858.75;;;-141.84;53.36
15260;BME280;34462;51.368;12.364;2024-03-29T05:25:44;18872.97;;;-141.84;53.01
15260;BME280;34462;51.368;12.364;2024-03-29T05:28:14;18868.91;;;-141.84;53.31
15260;BME280;34462;51.368;12.364;2024-03-29T05:30:43;18879.06;;;-141.84;52.82
15260;BME280;34462;51.368;12.364;2024-03-29T05:33:11;18870.94;;;-141.84;51.93
15260;BME280;34462;51.368;12.364;2024-03-29T05:35:38;18903.44;;;-141.84;51.69
15260;BME280;34462;51.368;12.364;2024-03-29T05:38:06;18901.41;;;-141.84;52.47
15260;BME280;34462;51.368;12.364;2024-03-29T05:40:33;18858.75;;;-141.84;52.02
15260;BME280;34462;51.368;12.364;2024-03-29T05:43:00;18891.25;;;-141.84;52.06
15260;BME280;34462;51.368;12.364;2024-03-29T05:45:30;18866.88;;;-141.84;52.09
15260;BME280;34462;51.368;12.364;2024-03-29T05:47:58;18885.16;;;-141.84;52.29
15260;BME280;34462;51.368;12.364;2024-03-29T05:50:27;18889.22;;;-141.84;51.75
15260;BME280;34462;51.368;12.364;2024-03-29T05:52:54;18905.47;;;-141.84;51.36
15260;BME280;34462;51.368;12.364;2024-03-29T05:55:22;18889.22;;;-141.84;51.60
15260;BME280;34462;51.368;12.364;2024-03-29T05:57:49;18935.97;;;-141.84;50.33
15260;BME280;34462;51.368;12.364;2024-03-29T06:00:17;18950.19;;;-141.84;50.75
15260;BME280;34462;51.368;12.364;2024-03-29T06:02:44;18905.47;;;-141.84;50.78
15260;BME280;34462;51.368;12.364;2024-03-29T06:05:12;18931.91;;;-141.84;50.54
15260;BME280;34462;51.368;12.364;2024-03-29T06:07:40;18899.38;;;-141.84;50.19
15260;BME280;34462;51.368;12.364;2024-03-29T06:10:08;18921.75;;;-141.84;50.42
15260;BME280;34462;51.368;12.364;2024-03-29T06:12:36;18948.16;;;-141.84;50.62
15260;BME280;34462;51.368;12.364;2024-03-29T06:15:06;18935.97;;;-141.84;50.09
15260;BME280;34462;51.368;12.364;2024-03-29T06:17:51;18907.50;;;-141.84;49.94
15260;BME280;34462;51.368;12.364;2024-03-29T06:20:18;18917.66;;;-141.84;49.96
15260;BME280;34462;51.368;12.364;2024-03-29T06:22:47;18966.44;;;-141.84;49.55
15260;BME280;34462;51.368;12.364;2024-03-29T06:25:15;18940.03;;;-141.84;49.88
15260;BME280;34462;51.368;12.364;2024-03-29T06:27:42;18948.16;;;-141.84;49.44
15260;BME280;34462;51.368;12.364;2024-03-29T06:30:14;18954.25;;;-141.84;48.93
15260;BME280;34462;51.368;12.364;2024-03-29T06:32:43;18976.59;;;-141.84;49.74
15260;BME280;34462;51.368;12.364;2024-03-29T06:35:11;18944.09;;;-141.84;49.48
15260;BME280;34462;51.368;12.364;2024-03-29T06:37:38;18996.91;;;-141.84;48.95
15260;BME280;34462;51.368;12.364;2024-03-29T06:40:09;18996.91;;;-141.84;48.70
15260;BME280;34462;51.368;12.364;2024-03-29T06:42:37;19013.16;;;-141.84;47.85
15260;BME280;34462;51.368;12.364;2024-03-29T06:45:06;19037.56;;;-141.84;47.93
15260;BME280;34462;51.368;12.364;2024-03-29T06:47:35;19027.41;;;-141.84;47.75
15260;BME280;34462;51.368;12.364;2024-03-29T06:50:02;19078.19;;;-141.84;47.65
15260;BME280;34462;51.368;12.364;2024-03-29T06:52:30;19021.31;;;-141.84;46.91
15260;BME280;34462;51.368;12.364;2024-03-29T06:54:57;19057.88;;;-141.84;46.93
15260;BME280;34462;51.368;12.364;2024-03-29T06:57:26;19102.56;;;-141.84;46.81
15260;BME280;34462;51.368;12.364;2024-03-29T06:59:57;19072.09;;;-141.84;47.00
15260;BME280;34462;51.368;12.364;2024-03-29T07:02:24;19068.03;;;-141.84;47.01
15260;BME280;34462;51.368;12.364;2024-03-29T07:04:52;19110.72;;;-141.84;46.93
15260;BME280;34462;51.368;12.364;2024-03-29T07:07:19;19057.88;;;-141.84;46.79
15260;BME280;34462;51.368;12.364;2024-03-29T07:09:46;19049.75;;;-141.84;46.41
15260;BME280;34462;51.368;12.364;2024-03-29T07:12:13;19098.50;;;-141.84;46.55
15260;BME280;34462;51.368;12.364;2024-03-29T07:14:43;19086.31;;;-141.84;46.73
15260;BME280;34462;51.368;12.364;2024-03-29T07:17:10;19053.81;;;-141.84;46.60
15260;BME280;34462;51.368;12.364;2024-03-29T07:19:37;19059.91;;;-141.84;46.41
15260;BME280;34462;51.368;12.364;2024-03-29T07:22:05;19066.00;;;-141.84;46.64
15260;BME280;34462;51.368;12.364;2024-03-29T07:24:32;19122.91;;;-141.84;45.93
15260;BME280;34462;51.368;12.364;2024-03-29T07:26:59;19082.25;;;-141.84;46.21
15260;BME280;34462;51.368;12.364;2024-03-29T07:29:27;19108.69;;;-141.84;46.14
15260;BME280;34462;51.368;12.364;2024-03-29T07:31:55;19084.28;;;-141.84;46.10
15260;BME280;34462;51.368;12.364;2024-03-29T07:34:23;19074.13;;;-141.84;46.49
15260;BME280;34462;51.368;12.364;2024-03-29T07:36:50;19080.22;;;-141.84;46.63
15260;BME280;34462;51.368;12.364;2024-03-29T07:39:17;19094.44;;;-141.84;45.79
15260;BME280;34462;51.368;12.364;2024-03-29T07:41:46;19110.72;;;-141.84;46.36
15260;BME280;34462;51.368;12.364;2024-03-29T07:44:13;19133.06;;;-141.84;46.01
15260;BME280;34462;51.368;12.364;2024-03-29T07:46:40;19129.00;;;-141.84;46.03
15260;BME280;34462;51.368;12.364;2024-03-29T07:49:09;19090.38;;;-141.84;45.82
15260;BME280;34462;51.368;12.364;2024-03-29T07:51:36;19143.22;;;-141.84;45.69
15260;BME280;34462;51.368;12.364;2024-03-29T07:54:04;19141.19;;;-141.84;45.67
15260;BME280;34462;51.368;12.364;2024-03-29T07:56:31;19120.88;;;-141.84;46.01
15260;BME280;34462;51.368;12.364;2024-03-29T07:58:58;19137.13;;;-141.84;45.77
15260;BME280;34462;51.368;12.364;2024-03-29T08:01:25;19118.84;;;-141.84;46.53
15260;BME280;34462;51.368;12.364;2024-03-29T08:03:53;19122.91;;;-141.84;46.54
15260;BME280;34462;51.368;12.364;2024-03-29T08:06:22;19155.41;;;-141.84;46.33
15260;BME280;34462;51.368;12.364;2024-03-29T08:08:50;19104.59;;;-141.84;47.55
15260;BME280;34462;51.368;12.364;2024-03-29T08:11:17;19074.13;;;-141.84;48.12
15260;BME280;34462;51.368;12.364;2024-03-29T08:13:45;19076.16;;;-141.84;49.97
15260;BME280;34462;51.368;12.364;2024-03-29T08:16:12;19000.97;;;-141.84;51.49
15260;BME280;34462;51.368;12.364;2024-03-29T08:18:39;18948.16;;;-141.84;52.12
15260;BME280;34462;51.368;12.364;2024-03-29T08:21:07;18958.31;;;-141.84;53.98
15260;BME280;34462;51.368;12.364;2024-03-29T08:23:40;18956.28;;;-141.84;54.62
15260;BME280;34462;51.368;12.364;2024-03-29T08:26:07;18962.38;;;-141.84;56.17
15260;BME280;34462;51.368;12.364;2024-03-29T08:28:35;18911.56;;;-141.84;58.14
15260;BME280;34462;51.368;12.364;2024-03-29T08:31:05;18956.28;;;-141.84;56.27
15260;BME280;34462;51.368;12.364;2024-03-29T08:33:35;18966.44;;;-141.84;55.35
15260;BME280;34462;51.368;12.364;2024-03-29T08:36:04;18952.22;;;-141.84;56.40
15260;BME280;34462;51.368;12.364;2024-03-29T08:38:32;18933.94;;;-141.84;56.94
15260;BME280;34462;51.368;12.364;2024-03-29T08:41:01;18980.66;;;-141.84;55.67
15260;BME280;34462;51.368;12.364;2024-03-29T08:43:28;18970.50;;;-141.84;56.33
15260;BME280;34462;51.368;12.364;2024-03-29T08:45:56;18990.81;;;-141.84;56.58
15260;BME280;34462;51.368;12.364;2024-03-29T08:48:23;19015.19;;;-141.84;55.36
15260;BME280;34462;51.368;12.364;2024-03-29T08:50:51;18988.78;;;-141.84;54.55
15260;BME280;34462;51.368;12.364;2024-03-29T08:53:18;19013.16;;;-141.84;53.84
15260;BME280;34462;51.368;12.364;2024-03-29T08:55:47;19005.03;;;-141.84;53.21
15260;BME280;34462;51.368;12.364;2024-03-29T08:58:17;19017.25;;;-141.84;52.79
15260;BME280;34462;51.368;12.364;2024-03-29T09:00:53;19049.75;;;-141.84;51.13
15260;BME280;34462;51.368;12.364;2024-03-29T09:03:22;19019.28;;;-141.84;51.59
15260;BME280;34462;51.368;12.364;2024-03-29T09:05:50;19043.66;;;-141.84;51.71
15260;BME280;34462;51.368;12.364;2024-03-29T09:08:18;19061.94;;;-141.84;51.14
15260;BME280;34462;51.368;12.364;2024-03-29T09:10:46;19072.09;;;-141.84;49.88
15260;BME280;34462;51.368;12.364;2024-03-29T09:13:13;19041.63;;;-141.84;50.67
15260;BME280;34462;51.368;12.364;2024-03-29T09:15:42;19063.97;;;-141.84;50.39
15260;BME280;34462;51.368;12.364;2024-03-29T09:18:09;19120.88;;;-141.84;50.12
15260;BME280;34462;51.368;12.364;2024-03-29T09:20:44;19074.13;;;-141.84;50.14
15260;BME280;34462;51.368;12.364;2024-03-29T09:23:12;19110.72;;;-141.84;49.77
15260;BME280;34462;51.368;12.364;2024-03-29T09:25:43;19092.41;;;-141.84;49.25
15260;BME280;34462;51.368;12.364;2024-03-29T09:28:10;19157.44;;;-141.84;47.78
15260;BME280;34462;51.368;12.364;2024-03-29T09:30:37;19118.84;;;-141.84;47.92
15260;BME280;34462;51.368;12.364;2024-03-29T09:33:06;19126.97;;;-141.84;48.71
15260;BME280;34462;51.368;12.364;2024-03-29T09:35:35;19147.28;;;-141.84;48.12
15260;BME280;34462;51.368;12.364;2024-03-29T09:38:04;19131.03;;;-141.84;47.45
15260;BME280;34462;51.368;12.364;2024-03-29T09:40:32;19143.22;;;-141.84;47.65
15260;BME280;34462;51.368;12.364;2024-03-29T09:43:01;19155.41;;;-141.84;47.57
15260;BME280;34462;51.368;12.364;2024-03-29T09:45:31;19139.16;;;-141.84;47.83
15260;BME280;34462;51.368;12.364;2024-03-29T09:48:03;19151.34;;;-141.84;47.76
15260;BME280;34462;51.368;12.364;2024-03-29T09:50:33;19141.19;;;-141.84;47.10
15260;BME280;34462;51.368;12.364;2024-03-29T09:53:02;19177.75;;;-141.84;47.65
15260;BME280;34462;51.368;12.364;2024-03-29T09:55:29;19179.78;;;-141.84;47.91
15260;BME280;34462;51.368;12.364;2024-03-29T09:57:57;19143.22;;;-141.84;48.29
15260;BME280;34462;51.368;12.364;2024-03-29T10:00:27;19159.47;;;-141.84;48.33
15260;BME280;34462;51.368;12.364;2024-03-29T10:02:56;19155.41;;;-141.84;48.26
15260;BME280;34462;51.368;12.364;2024-03-29T10:05:24;19135.09;;;-141.84;48.22
15260;BME280;34462;51.368;12.364;2024-03-29T10:07:54;19149.31;;;-141.84;48.52
15260;BME280;34462;51.368;12.364;2024-03-29T10:10:22;19151.34;;;-141.84;48.88
15260;BME280;34462;51.368;12.364;2024-03-29T10:12:50;19139.16;;;-141.84;48.60
15260;BME280;34462;51.368;12.364;2024-03-29T10:15:17;19163.53;;;-141.84;48.43
15260;BME280;34462;51.368;12.364;2024-03-29T10:17:48;19185.88;;;-141.84;48.40
15260;BME280;34462;51.368;12.364;2024-03-29T10:20:16;19185.88;;;-141.84;48.13
15260;BME280;34462;51.368;12.364;2024-03-29T10:22:45;19187.91;;;-141.84;48.36
15260;BME280;34462;51.368;12.364;2024-03-29T10:25:15;19185.88;;;-141.84;47.69
15260;BME280;34462;51.368;12.364;2024-03-29T10:27:42;19218.41;;;-141.84;47.05
15260;BME280;34462;51.368;12.364;2024-03-29T10:30:11;19210.28;;;-141.84;47.02
15260;BME280;34462;51.368;12.364;2024-03-29T10:32:43;19236.69;;;-141.84;47.24
15260;BME280;34462;51.368;12.364;2024-03-29T10:35:11;19216.38;;;-141.84;47.45
15260;BME280;34462;51.368;12.364;2024-03-29T10:37:38;19187.91;;;-141.84;47.47
15260;BME280;34462;51.368;12.364;2024-03-29T10:40:09;19230.59;;;-141.84;47.81
15260;BME280;34462;51.368;12.364;2024-03-29T10:42:38;19261.06;;;-141.84;47.37
15260;BME280;34462;51.368;12.364;2024-03-29T10:45:08;19228.56;;;-141.84;46.90
15260;BME280;34462;51.368;12.364;2024-03-29T10:47:36;19265.13;;;-141.84;46.92
15260;BME280;34462;51.368;12.364;2024-03-29T10:50:05;19240.75;;;-141.84;47.41
15260;BME280;34462;51.368;12.364;2024-03-29T10:52:34;19236.69;;;-141.84;47.54
15260;BME280;34462;51.368;12.364;2024-03-29T10:55:03;19242.78;;;-141.84;47.21
15260;BME280;34462;51.368;12.364;2024-03-29T10:57:33;19248.88;;;-141.84;46.66
15260;BME280;34462;51.368;12.364;2024-03-29T11:00:11;19269.22;;;-141.84;45.94
15260;BME280;34462;51.368;12.364;2024-03-29T11:02:49;19313.91;;;-141.84;45.57
15260;BME280;34462;51.368;12.364;2024-03-29T11:05:18;19307.81;;;-141.84;45.48
15260;BME280;34462;51.368;12.364;2024-03-29T11:07:47;19401.28;;;-141.84;45.19
15260;BME280;34462;51.368;12.364;2024-03-29T11:10:23;19411.44;;;-141.84;44.71
15260;BME280;34462;51.368;12.364;2024-03-29T11:13:00;19409.41;;;-141.84;44.39
15260;BME280;34462;51.368;12.364;2024-03-29T11:15:35;19417.56;;;-141.84;43.85
15260;BME280;34462;51.368;12.364;2024-03-29T11:18:05;19452.09;;;-141.84;42.83
15260;BME280;34462;51.368;12.364;2024-03-29T11:20:35;19486.66;;;-141.84;42.56
15260;BME280;34462;51.368;12.364;2024-03-29T11:23:09;19466.31;;;-141.84;42.33
15260;BME280;34462;51.368;12.364;2024-03-29T11:25:40;19474.44;;;-141.84;42.37
15260;BME280;34462;51.368;12.364;2024-03-29T11:28:12;19521.19;;;-141.84;42.17
15260;BME280;34462;51.368;12.364;2024-03-29T11:30:48;19492.75;;;-141.84;42.08
15260;BME280;34462;51.368;12.364;2024-03-29T11:33:32;19525.25;;;-141.84;41.49
15260;BME280;34462;51.368;12.364;2024-03-29T11:36:10;19580.13;;;-141.84;40.86
15260;BME280;34462;51.368;12.364;2024-03-29T11:38:38;19590.28;;;-141.84;40.45
15260;BME280;34462;51.368;12.364;2024-03-29T11:41:10;19616.72;;;-141.84;40.26
15260;BME280;34462;51.368;12.364;2024-03-29T11:43:38;19582.16;;;-141.84;40.76
15260;BME280;34462;51.368;12.364;2024-03-29T11:46:09;19582.16;;;-141.84;41.30
15260;BME280;34462;51.368;12.364;2024-03-29T11:48:38;19588.25;;;-141.84;41.10
15260;BME280;34462;51.368;12.364;2024-03-29T11:51:08;19610.59;;;-141.84;40.67
15260;BME280;34462;51.368;12.364;2024-03-29T11:53:37;19606.53;;;-141.84;40.90
15260;BME280;34462;51.368;12.364;2024-03-29T11:56:05;19632.97;;;-141.84;40.34
15260;BME280;34462;51.368;12.364;2024-03-29T11:58:34;19608.56;;;-141.84;40.83
15260;BME280;34462;51.368;12.364;2024-03-29T12:01:02;19667.50;;;-141.84;40.13
15260;BME280;34462;51.368;12.364;2024-03-29T12:03:32;19655.31;;;-141.84;40.04
15260;BME280;34462;51.368;12.364;2024-03-29T12:06:00;19632.97;;;-141.84;40.35
15260;BME280;34462;51.368;12.364;2024-03-29T12:08:29;19639.06;;;-141.84;40.57
15260;BME280;34462;51.368;12.364;2024-03-29T12:10:58;19626.88;;;-141.84;40.83
15260;BME280;34462;51.368;12.364;2024-03-29T12:13:26;19655.31;;;-141.84;40.17
15260;BME280;34462;51.368;12.364;2024-03-29T12:15:54;19689.88;;;-141.84;40.37
15260;BME280;34462;51.368;12.364;2024-03-29T12:18:23;19655.31;;;-141.84;40.98
15260;BME280;34462;51.368;12.364;2024-03-29T12:20:52;19616.72;;;-141.84;41.23
15260;BME280;34462;51.368;12.364;2024-03-29T12:23:21;19626.88;;;-141.84;41.93
15260;BME280;34462;51.368;12.364;2024-03-29T12:25:51;19594.34;;;-141.84;42.32
15260;BME280;34462;51.368;12.364;2024-03-29T12:28:18;19606.53;;;-141.84;42.93
15260;BME280;34462;51.368;12.364;2024-03-29T12:30:47;19531.34;;;-141.84;43.41
15260;BME280;34462;51.368;12.364;2024-03-29T12:33:17;19614.66;;;-141.84;43.40
15260;BME280;34462;51.368;12.364;2024-03-29T12:35:47;19582.16;;;-141.84;43.41